createdAt,value
2018-09-04T00:00:55.146Z,20.79
2018-09-04T00:01:55.159Z,20.71
2018-09-04T00:02:55.197Z,20.77
2018-09-04T00:03:55.217Z,20.83
2018-09-04T00:04:55.244Z,20.87
2018-09-04T00:05:55.260Z,20.89
2018-09-04T00:06:55.285Z,20.79
2018-09-04T00:07:55.401Z,20.65
2018-09-04T00:08:55.329Z,20.68
2018-09-04T00:09:55.350Z,20.74
2018-09-04T00:10:55.373Z,20.71
2018-09-04T00:11:55.404Z,20.64
2018-09-04T00:12:55.419Z,20.69
2018-09-04T00:13:55.444Z,20.72
2018-09-04T00:14:55.463Z,20.69
2018-09-04T00:15:55.484Z,20.79
2018-09-04T00:16:55.511Z,20.72
2018-09-04T00:17:55.538Z,20.74
2018-09-04T00:18:55.559Z,20.72
2018-09-04T00:19:55.582Z,20.69
2018-09-04T00:20:55.613Z,20.68
2018-09-04T00:21:55.626Z,20.68
2018-09-04T00:22:55.645Z,20.77
2018-09-04T00:23:55.672Z,20.80
2018-09-04T00:24:55.700Z,20.66
2018-09-04T00:25:55.715Z,20.71
2018-09-04T00:26:55.740Z,20.72
2018-09-04T00:27:55.758Z,20.61
2018-09-04T00:28:55.790Z,20.66
2018-09-04T00:29:55.826Z,20.69
2018-09-04T00:30:55.840Z,20.77
2018-09-04T00:31:55.935Z,20.79
2018-09-04T00:32:55.875Z,20.81
2018-09-04T00:33:55.913Z,20.80
2018-09-04T00:34:55.927Z,20.83
2018-09-04T00:35:55.948Z,20.83
2018-09-04T00:36:55.969Z,20.69
2018-09-04T00:37:55.991Z,20.74
2018-09-04T00:38:56.016Z,20.72
2018-09-04T00:39:56.042Z,20.69
2018-09-04T00:40:56.063Z,20.71
2018-09-04T00:41:56.087Z,20.64
2018-09-04T00:42:56.108Z,20.64
2018-09-04T00:43:56.136Z,20.80
2018-09-04T00:44:56.160Z,20.66
2018-09-04T00:45:56.189Z,20.68
2018-09-04T00:46:56.199Z,20.69
2018-09-04T00:47:56.226Z,20.76
2018-09-04T00:48:56.259Z,20.72
2018-09-04T00:49:56.271Z,20.72
2018-09-04T00:50:56.290Z,20.58
2018-09-04T00:51:56.318Z,20.69
2018-09-04T00:52:56.340Z,20.69
2018-09-04T00:53:56.360Z,20.72
2018-09-04T00:54:57.196Z,20.74
2018-09-04T00:55:56.412Z,20.68
2018-09-04T00:56:56.430Z,20.68
2018-09-04T00:57:56.473Z,20.62
2018-09-04T00:58:56.522Z,20.71
2018-09-04T00:59:56.501Z,20.72
2018-09-04T01:00:56.518Z,20.66
2018-09-04T01:01:56.553Z,20.66
2018-09-04T01:02:56.565Z,20.72
2018-09-04T01:03:56.592Z,20.71
2018-09-04T01:04:56.618Z,20.74
2018-09-04T01:05:56.637Z,20.69
2018-09-04T01:06:56.654Z,20.72
2018-09-04T01:07:56.687Z,20.72
2018-09-04T01:08:56.701Z,20.69
2018-09-04T01:09:56.723Z,20.61
2018-09-04T01:10:56.809Z,20.66
2018-09-04T01:11:56.768Z,20.64
2018-09-04T01:12:56.802Z,20.66
2018-09-04T01:13:56.830Z,20.69
2018-09-04T01:14:56.840Z,20.72
2018-09-04T01:15:56.865Z,20.66
2018-09-04T01:16:56.886Z,20.68
2018-09-04T01:17:56.917Z,20.64
2018-09-04T01:18:56.925Z,20.69
2018-09-04T01:19:56.959Z,20.66
2018-09-04T01:20:57.002Z,20.64
2018-09-04T01:21:57.028Z,20.65
2018-09-04T01:22:57.022Z,20.62
2018-09-04T01:23:57.050Z,20.66
2018-09-04T01:24:57.075Z,20.71
2018-09-04T01:25:57.085Z,20.64
2018-09-04T01:26:57.122Z,20.61
2018-09-04T01:27:57.132Z,20.66
2018-09-04T01:28:57.167Z,20.76
2018-09-04T01:29:57.182Z,20.69
2018-09-04T01:30:57.200Z,20.58
2018-09-04T01:31:57.713Z,20.59
2018-09-04T01:32:57.256Z,20.68
2018-09-04T01:33:57.277Z,20.64
2018-09-04T01:34:57.322Z,20.58
2018-09-04T01:35:57.323Z,20.61
2018-09-04T01:36:57.341Z,20.66
2018-09-04T01:37:57.361Z,20.58
2018-09-04T01:38:57.414Z,20.58
2018-09-04T01:39:57.411Z,20.53
2018-09-04T01:40:57.438Z,20.46
2018-09-04T01:41:57.454Z,20.47
2018-09-04T01:42:57.480Z,20.53
2018-09-04T01:43:57.510Z,20.56
2018-09-04T01:44:57.536Z,20.51
2018-09-04T01:45:57.592Z,20.54
2018-09-04T01:46:57.572Z,20.50
2018-09-04T01:47:57.586Z,20.56
2018-09-04T01:48:57.607Z,20.54
2018-09-04T01:49:57.645Z,20.61
2018-09-04T01:50:57.664Z,20.62
2018-09-04T01:51:57.693Z,20.62
2018-09-04T01:52:57.705Z,20.72
2018-09-04T01:53:57.738Z,20.54
2018-09-04T01:54:57.754Z,20.51
2018-09-04T01:55:57.769Z,20.56
2018-09-04T01:56:57.795Z,20.54
2018-09-04T01:57:57.816Z,20.49
2018-09-04T01:58:57.852Z,20.43
2018-09-04T01:59:57.861Z,20.47
2018-09-04T02:00:57.888Z,20.34
2018-09-04T02:01:57.910Z,20.27
2018-09-04T02:02:57.928Z,20.24
2018-09-04T02:03:57.965Z,20.34
2018-09-04T02:04:57.974Z,20.21
2018-09-04T02:05:57.998Z,20.12
2018-09-04T02:06:58.020Z,20.15
2018-09-04T02:07:58.046Z,20.03
2018-09-04T02:08:58.068Z,20.09
2018-09-04T02:09:58.145Z,20.18
2018-09-04T02:10:58.134Z,20.15
2018-09-04T02:11:58.133Z,20.06
2018-09-04T02:12:58.154Z,20.02
2018-09-04T02:13:58.181Z,20.06
2018-09-04T02:14:58.200Z,20.13
2018-09-04T02:15:58.220Z,20.20
2018-09-04T02:16:58.244Z,20.16
2018-09-04T02:17:58.273Z,20.15
2018-09-04T02:18:58.305Z,20.16
2018-09-04T02:19:58.342Z,20.27
2018-09-04T02:20:58.435Z,20.38
2018-09-04T02:21:58.353Z,20.38
2018-09-04T02:22:58.390Z,20.25
2018-09-04T02:23:58.404Z,20.20
2018-09-04T02:24:58.431Z,20.39
2018-09-04T02:25:58.447Z,20.28
2018-09-04T02:26:58.471Z,20.41
2018-09-04T02:27:58.500Z,20.41
2018-09-04T02:28:58.519Z,20.39
2018-09-04T02:29:58.533Z,20.41
2018-09-04T02:30:58.566Z,20.38
2018-09-04T02:31:58.650Z,20.35
2018-09-04T02:32:58.607Z,20.34
2018-09-04T02:33:58.630Z,20.33
2018-09-04T02:34:58.672Z,20.27
2018-09-04T02:35:58.671Z,20.33
2018-09-04T02:36:58.700Z,20.39
2018-09-04T02:37:58.721Z,20.27
2018-09-04T02:38:58.742Z,20.24
2018-09-04T02:39:58.758Z,20.21
2018-09-04T02:40:58.783Z,20.28
2018-09-04T02:41:58.813Z,20.25
2018-09-04T02:42:58.829Z,20.24
2018-09-04T02:43:58.854Z,20.21
2018-09-04T02:44:58.946Z,20.18
2018-09-04T02:45:58.907Z,20.24
2018-09-04T02:46:58.932Z,20.28
2018-09-04T02:47:58.948Z,20.21
2018-09-04T02:48:58.965Z,20.23
2018-09-04T02:49:58.991Z,20.27
2018-09-04T02:50:59.011Z,20.25
2018-09-04T02:51:59.028Z,20.28
2018-09-04T02:52:59.049Z,20.38
2018-09-04T02:53:59.083Z,20.41
2018-09-04T02:54:59.096Z,20.39
2018-09-04T02:55:59.119Z,20.28
2018-09-04T02:56:59.143Z,20.23
2018-09-04T02:57:59.168Z,20.25
2018-09-04T02:58:59.187Z,20.18
2018-09-04T02:59:59.211Z,20.12
2018-09-04T03:00:59.240Z,20.27
2018-09-04T03:01:59.259Z,20.28
2018-09-04T03:02:59.291Z,20.20
2018-09-04T03:03:59.299Z,20.23
2018-09-04T03:04:59.323Z,20.23
2018-09-04T03:05:59.345Z,20.28
2018-09-04T03:06:59.360Z,20.25
2018-09-04T03:07:59.386Z,20.20
2018-09-04T03:08:59.534Z,20.25
2018-09-04T03:09:59.434Z,20.18
2018-09-04T03:10:59.451Z,20.03
2018-09-04T03:11:59.481Z,20.18
2018-09-04T03:12:59.497Z,20.13
2018-09-04T03:13:59.630Z,20.05
2018-09-04T03:14:59.540Z,20.02
2018-09-04T03:15:59.565Z,19.98
2018-09-04T03:16:59.591Z,19.98
2018-09-04T03:17:59.626Z,19.88
2018-09-04T03:18:59.630Z,19.87
2018-09-04T03:19:59.659Z,19.94
2018-09-04T03:20:59.698Z,20.00
2018-09-04T03:21:59.703Z,19.93
2018-09-04T03:22:59.775Z,20.05
2018-09-04T03:24:00.256Z,19.98
2018-09-04T03:24:59.777Z,19.93
2018-09-04T03:25:59.795Z,19.91
2018-09-04T03:26:59.824Z,19.97
2018-09-04T03:27:59.832Z,19.95
2018-09-04T03:28:59.861Z,19.94
2018-09-04T03:29:59.893Z,19.94
2018-09-04T03:30:59.908Z,19.98
2018-09-04T03:31:59.928Z,19.90
2018-09-04T03:32:59.946Z,19.91
2018-09-04T03:33:59.971Z,19.86
2018-09-04T03:34:59.991Z,19.95
2018-09-04T03:36:00.017Z,19.94
2018-09-04T03:37:00.045Z,19.93
2018-09-04T03:38:00.067Z,19.95
2018-09-04T03:39:00.081Z,19.94
2018-09-04T03:40:00.103Z,20.00
2018-09-04T03:42:00.145Z,19.98
2018-09-04T03:43:00.166Z,20.06
2018-09-04T03:44:00.235Z,19.84
2018-09-04T03:45:00.213Z,19.97
2018-09-04T03:46:00.234Z,19.90
2018-09-04T03:47:00.259Z,20.00
2018-09-04T03:48:00.291Z,19.84
2018-09-04T03:49:00.312Z,19.84
2018-09-04T03:50:00.319Z,19.87
2018-09-04T03:51:00.347Z,20.00
2018-09-04T03:52:00.372Z,19.91
2018-09-04T03:53:00.396Z,19.91
2018-09-04T03:54:00.426Z,19.87
2018-09-04T03:55:00.431Z,19.98
2018-09-04T03:56:00.456Z,19.88
2018-09-04T03:57:00.482Z,19.94
2018-09-04T03:58:00.508Z,19.76
2018-09-04T03:59:00.524Z,19.78
2018-09-04T04:00:00.541Z,19.83
2018-09-04T04:01:00.567Z,19.72
2018-09-04T04:02:00.597Z,19.87
2018-09-04T04:03:00.617Z,19.86
2018-09-04T04:04:00.665Z,19.87
2018-09-04T04:05:00.693Z,19.88
2018-09-04T04:06:00.677Z,19.88
2018-09-04T04:07:01.274Z,19.87
2018-09-04T04:08:00.722Z,19.87
2018-09-04T04:09:00.749Z,19.90
2018-09-04T04:10:00.779Z,19.90
2018-09-04T04:11:00.795Z,19.93
2018-09-04T04:12:00.946Z,19.83
2018-09-04T04:13:00.842Z,19.88
2018-09-04T04:14:00.858Z,19.87
2018-09-04T04:15:00.885Z,19.88
2018-09-04T04:16:00.902Z,19.91
2018-09-04T04:17:00.930Z,19.88
2018-09-04T04:18:00.945Z,20.02
2018-09-04T04:19:00.973Z,19.86
2018-09-04T04:20:00.995Z,19.86
2018-09-04T04:21:01.014Z,19.87
2018-09-04T04:22:01.033Z,19.91
2018-09-04T04:23:01.100Z,19.90
2018-09-04T04:24:01.148Z,19.87
2018-09-04T04:25:01.101Z,19.94
2018-09-04T04:26:01.126Z,20.00
2018-09-04T04:27:01.145Z,19.88
2018-09-04T04:28:01.168Z,19.98
2018-09-04T04:29:01.187Z,19.95
2018-09-04T04:30:01.205Z,19.84
2018-09-04T04:31:01.230Z,19.86
2018-09-04T04:32:01.308Z,19.88
2018-09-04T04:33:01.334Z,19.83
2018-09-04T04:34:01.300Z,19.88
2018-09-04T04:35:01.325Z,19.84
2018-09-04T04:36:01.351Z,19.76
2018-09-04T04:37:01.368Z,19.84
2018-09-04T04:38:01.404Z,19.86
2018-09-04T04:39:01.415Z,19.75
2018-09-04T04:40:01.455Z,19.75
2018-09-04T04:41:01.460Z,19.80
2018-09-04T04:42:01.471Z,19.72
2018-09-04T04:43:01.507Z,19.70
2018-09-04T04:44:01.523Z,19.76
2018-09-04T04:45:01.589Z,19.78
2018-09-04T04:46:01.568Z,19.79
2018-09-04T04:47:01.686Z,19.73
2018-09-04T04:48:01.698Z,19.83
2018-09-04T04:49:01.629Z,19.80
2018-09-04T04:50:01.654Z,19.88
2018-09-04T04:51:01.679Z,19.90
2018-09-04T04:52:01.698Z,19.88
2018-09-04T04:53:01.724Z,19.73
2018-09-04T04:54:01.743Z,19.76
2018-09-04T04:55:01.782Z,19.78
2018-09-04T04:56:01.801Z,19.70
2018-09-04T04:57:01.805Z,19.73
2018-09-04T04:58:01.831Z,19.73
2018-09-04T04:59:01.853Z,19.72
2018-09-04T05:00:01.912Z,19.72
2018-09-04T05:01:01.922Z,19.86
2018-09-04T05:02:01.911Z,19.79
2018-09-04T05:03:01.934Z,19.73
2018-09-04T05:04:01.963Z,19.78
2018-09-04T05:05:01.986Z,19.79
2018-09-04T05:06:02.007Z,19.80
2018-09-04T05:07:02.028Z,19.83
2018-09-04T05:08:02.045Z,19.93
2018-09-04T05:09:02.225Z,19.80
2018-09-04T05:10:02.101Z,19.73
2018-09-04T05:11:02.126Z,19.70
2018-09-04T05:12:02.138Z,19.79
2018-09-04T05:13:02.157Z,19.73
2018-09-04T05:14:02.176Z,19.80
2018-09-04T05:15:02.226Z,19.87
2018-09-04T05:16:02.241Z,19.73
2018-09-04T05:17:02.245Z,19.70
2018-09-04T05:18:02.269Z,19.76
2018-09-04T05:19:02.289Z,19.69
2018-09-04T05:20:02.315Z,19.76
2018-09-04T05:21:02.346Z,19.78
2018-09-04T05:22:02.447Z,19.68
2018-09-04T05:23:02.376Z,19.73
2018-09-04T05:24:02.396Z,19.72
2018-09-04T05:25:02.418Z,19.60
2018-09-04T05:26:02.454Z,19.72
2018-09-04T05:27:02.464Z,19.76
2018-09-04T05:28:02.649Z,19.72
2018-09-04T05:29:02.522Z,19.75
2018-09-04T05:30:02.540Z,19.78
2018-09-04T05:31:02.567Z,19.86
2018-09-04T05:32:02.576Z,19.73
2018-09-04T05:33:02.602Z,19.78
2018-09-04T05:34:02.627Z,19.66
2018-09-04T05:35:02.648Z,19.75
2018-09-04T05:36:02.667Z,19.70
2018-09-04T05:37:02.689Z,19.55
2018-09-04T05:38:02.720Z,19.54
2018-09-04T05:39:02.729Z,19.43
2018-09-04T05:40:02.760Z,19.60
2018-09-04T05:41:02.775Z,19.68
2018-09-04T05:42:02.799Z,19.76
2018-09-04T05:43:02.816Z,19.76
2018-09-04T05:44:02.849Z,19.72
2018-09-04T05:45:02.875Z,19.72
2018-09-04T05:46:02.893Z,19.68
2018-09-04T05:47:02.911Z,19.70
2018-09-04T05:48:02.930Z,19.69
2018-09-04T05:49:02.952Z,19.73
2018-09-04T05:50:02.976Z,19.80
2018-09-04T05:51:03.002Z,19.76
2018-09-04T05:52:03.022Z,19.69
2018-09-04T05:53:03.053Z,19.83
2018-09-04T05:54:03.065Z,19.78
2018-09-04T05:55:03.099Z,19.76
2018-09-04T05:56:03.107Z,19.73
2018-09-04T05:57:03.128Z,19.86
2018-09-04T05:58:03.159Z,19.76
2018-09-04T05:59:03.176Z,19.68
2018-09-04T06:00:03.202Z,19.75
2018-09-04T06:01:03.221Z,19.70
2018-09-04T06:02:03.255Z,19.70
2018-09-04T06:03:03.264Z,19.79
2018-09-04T06:04:03.287Z,19.75
2018-09-04T06:05:03.308Z,19.72
2018-09-04T06:06:03.353Z,19.84
2018-09-04T06:07:03.355Z,19.76
2018-09-04T06:08:03.406Z,19.68
2018-09-04T06:09:03.397Z,19.69
2018-09-04T06:10:03.431Z,19.76
2018-09-04T06:11:03.441Z,19.70
2018-09-04T06:12:03.493Z,19.79
2018-09-04T06:13:03.483Z,19.79
2018-09-04T06:14:03.537Z,19.86
2018-09-04T06:15:03.536Z,19.88
2018-09-04T06:16:03.558Z,19.87
2018-09-04T06:17:03.582Z,19.83
2018-09-04T06:18:03.611Z,19.79
2018-09-04T06:19:03.621Z,19.70
2018-09-04T06:20:03.718Z,19.80
2018-09-04T06:21:03.654Z,19.78
2018-09-04T06:22:03.682Z,19.76
2018-09-04T06:23:03.707Z,19.75
2018-09-04T06:24:03.746Z,19.83
2018-09-04T06:25:03.789Z,19.79
2018-09-04T06:26:03.773Z,19.78
2018-09-04T06:27:03.794Z,19.73
2018-09-04T06:28:03.816Z,19.80
2018-09-04T06:29:03.837Z,19.83
2018-09-04T06:30:03.868Z,19.80
2018-09-04T06:31:03.885Z,19.76
2018-09-04T06:32:03.902Z,19.75
2018-09-04T06:33:03.926Z,19.86
2018-09-04T06:34:03.999Z,19.87
2018-09-04T06:35:03.977Z,19.75
2018-09-04T06:36:03.998Z,19.73
2018-09-04T06:37:04.024Z,19.65
2018-09-04T06:38:04.031Z,19.70
2018-09-04T06:39:04.055Z,19.73
2018-09-04T06:40:04.089Z,19.69
2018-09-04T06:41:04.105Z,19.80
2018-09-04T06:42:04.129Z,19.87
2018-09-04T06:43:04.148Z,19.86
2018-09-04T06:44:04.171Z,19.84
2018-09-04T06:45:04.190Z,19.88
2018-09-04T06:46:04.229Z,20.00
2018-09-04T06:47:04.255Z,19.91
2018-09-04T06:48:04.251Z,19.90
2018-09-04T06:49:04.276Z,19.76
2018-09-04T06:50:04.306Z,19.72
2018-09-04T06:51:04.327Z,19.75
2018-09-04T06:52:04.352Z,19.70
2018-09-04T06:53:04.369Z,19.70
2018-09-04T06:54:04.395Z,19.83
2018-09-04T06:55:04.416Z,19.76
2018-09-04T06:56:04.438Z,19.70
2018-09-04T06:57:04.466Z,19.86
2018-09-04T06:58:04.489Z,19.87
2018-09-04T06:59:04.510Z,19.78
2018-09-04T07:00:04.551Z,19.78
2018-09-04T07:01:04.555Z,19.79
2018-09-04T07:02:04.575Z,19.80
2018-09-04T07:03:04.604Z,19.76
2018-09-04T07:04:04.620Z,19.72
2018-09-04T07:05:04.644Z,19.75
2018-09-04T07:06:04.734Z,19.69
2018-09-04T07:07:04.687Z,19.75
2018-09-04T07:08:04.709Z,19.75
2018-09-04T07:09:04.717Z,19.76
2018-09-04T07:10:04.747Z,19.76
2018-09-04T07:11:04.792Z,19.80
2018-09-04T07:12:04.797Z,19.86
2018-09-04T07:13:04.814Z,19.91
2018-09-04T07:14:04.829Z,19.88
2018-09-04T07:15:04.878Z,19.93
2018-09-04T07:16:04.881Z,19.91
2018-09-04T07:17:05.044Z,19.79
2018-09-04T07:18:04.928Z,19.98
2018-09-04T07:19:04.942Z,19.80
2018-09-04T07:20:04.963Z,19.94
2018-09-04T07:21:04.996Z,19.97
2018-09-04T07:22:05.022Z,19.88
2018-09-04T07:23:05.036Z,20.03
2018-09-04T07:24:05.059Z,20.08
2018-09-04T07:25:05.082Z,19.90
2018-09-04T07:26:05.100Z,19.87
2018-09-04T07:27:05.127Z,19.91
2018-09-04T07:28:05.151Z,19.94
2018-09-04T07:29:05.166Z,19.83
2018-09-04T07:30:05.210Z,19.86
2018-09-04T07:31:05.227Z,19.73
2018-09-04T07:32:05.233Z,19.69
2018-09-04T07:33:05.253Z,19.83
2018-09-04T07:34:05.286Z,19.83
2018-09-04T07:35:05.343Z,19.93
2018-09-04T07:36:05.330Z,19.91
2018-09-04T07:37:05.371Z,20.02
2018-09-04T07:38:05.378Z,20.03
2018-09-04T07:39:05.398Z,20.06
2018-09-04T07:40:05.414Z,20.08
2018-09-04T07:41:05.432Z,20.06
2018-09-04T07:42:05.462Z,20.00
2018-09-04T07:43:05.488Z,20.16
2018-09-04T07:44:05.507Z,20.15
2018-09-04T07:46:05.546Z,20.24
2018-09-04T07:47:05.587Z,20.25
2018-09-04T07:48:05.598Z,20.23
2018-09-04T07:49:05.617Z,20.25
2018-09-04T07:50:05.640Z,20.30
2018-09-04T07:51:05.680Z,20.23
2018-09-04T07:52:05.687Z,20.30
2018-09-04T07:53:05.742Z,20.23
2018-09-04T07:54:05.770Z,20.21
2018-09-04T07:55:05.750Z,20.21
2018-09-04T07:56:05.777Z,20.23
2018-09-04T07:57:05.858Z,20.28
2018-09-04T07:58:05.842Z,20.28
2018-09-04T07:59:05.857Z,20.35
2018-09-04T08:00:05.864Z,20.39
2018-09-04T08:01:05.937Z,20.50
2018-09-04T08:02:05.916Z,20.47
2018-09-04T08:03:05.943Z,20.47
2018-09-04T08:04:05.962Z,20.50
2018-09-04T08:05:05.982Z,20.43
2018-09-04T08:06:06.010Z,20.46
2018-09-04T08:07:06.037Z,20.46
2018-09-04T08:08:06.051Z,20.47
2018-09-04T08:09:06.075Z,20.39
2018-09-04T08:10:06.109Z,20.49
2018-09-04T08:11:06.122Z,20.49
2018-09-04T08:12:06.147Z,20.47
2018-09-04T08:13:06.166Z,20.51
2018-09-04T08:14:06.197Z,20.50
2018-09-04T08:15:06.211Z,20.47
2018-09-04T08:16:06.234Z,20.47
2018-09-04T08:17:06.283Z,20.50
2018-09-04T08:18:06.285Z,20.50
2018-09-04T08:19:06.313Z,20.58
2018-09-04T08:20:06.338Z,20.50
2018-09-04T08:21:06.349Z,20.61
2018-09-04T08:22:06.382Z,20.58
2018-09-04T08:23:06.399Z,20.65
2018-09-04T08:24:06.421Z,20.66
2018-09-04T08:25:06.465Z,20.66
2018-09-04T08:26:06.526Z,20.68
2018-09-04T08:27:06.495Z,20.74
2018-09-04T08:28:06.518Z,20.64
2018-09-04T08:29:06.533Z,20.71
2018-09-04T08:30:06.559Z,20.76
2018-09-04T08:31:06.588Z,20.86
2018-09-04T08:32:06.608Z,20.96
2018-09-04T08:33:06.653Z,20.95
2018-09-04T08:34:06.692Z,20.99
2018-09-04T08:35:06.672Z,21.02
2018-09-04T08:36:06.709Z,20.90
2018-09-04T08:37:06.730Z,20.86
2018-09-04T08:38:06.757Z,20.98
2018-09-04T08:39:06.771Z,20.87
2018-09-04T08:40:06.832Z,20.98
2018-09-04T08:41:06.822Z,21.01
2018-09-04T08:42:06.843Z,21.01
2018-09-04T08:43:06.866Z,20.98
2018-09-04T08:44:06.890Z,21.02
2018-09-04T08:45:06.905Z,21.06
2018-09-04T08:46:06.931Z,21.05
2018-09-04T08:47:06.992Z,21.01
2018-09-04T08:48:06.984Z,20.96
2018-09-04T08:49:07.033Z,20.96
2018-09-04T08:50:07.042Z,21.02
2018-09-04T08:51:07.064Z,21.09
2018-09-04T08:52:07.080Z,21.05
2018-09-04T08:53:07.113Z,21.08
2018-09-04T08:54:07.123Z,21.13
2018-09-04T08:55:07.163Z,21.14
2018-09-04T08:56:07.175Z,21.21
2018-09-04T08:57:07.215Z,21.24
2018-09-04T08:58:07.260Z,21.20
2018-09-04T08:59:07.241Z,21.24
2018-09-04T09:00:07.275Z,21.23
2018-09-04T09:01:07.292Z,21.23
2018-09-04T09:02:07.356Z,21.26
2018-09-04T09:03:07.336Z,21.20
2018-09-04T09:04:07.373Z,21.27
2018-09-04T09:05:07.386Z,21.35
2018-09-04T09:06:07.421Z,21.26
2018-09-04T09:07:07.440Z,21.23
2018-09-04T09:08:07.462Z,21.26
2018-09-04T09:09:07.490Z,21.30
2018-09-04T09:10:07.546Z,21.50
2018-09-04T09:11:07.535Z,21.61
2018-09-04T09:13:07.605Z,21.95
2018-09-04T09:14:07.614Z,22.09
2018-09-04T09:15:07.641Z,22.29
2018-09-04T09:16:07.706Z,22.50
2018-09-04T09:17:07.684Z,22.53
2018-09-04T09:18:07.703Z,22.56
2018-09-04T09:19:07.733Z,22.64
2018-09-04T09:20:07.749Z,22.64
2018-09-04T09:21:07.790Z,22.74
2018-09-04T09:22:07.827Z,22.72
2018-09-04T09:23:07.839Z,22.64
2018-09-04T09:24:07.857Z,22.57
2018-09-04T09:25:07.893Z,22.52
2018-09-04T09:26:07.915Z,22.54
2018-09-04T09:27:07.943Z,22.56
2018-09-04T09:28:07.977Z,22.43
2018-09-04T09:29:07.993Z,22.49
2018-09-04T09:30:08.038Z,22.50
2018-09-04T09:31:08.041Z,22.37
2018-09-04T09:32:08.083Z,22.47
2018-09-04T09:33:08.101Z,22.43
2018-09-04T09:34:08.135Z,22.25
2018-09-04T09:35:08.220Z,22.20
2018-09-04T09:36:08.178Z,22.10
2018-09-04T09:37:08.284Z,22.25
2018-09-04T09:38:08.230Z,22.16
2018-09-04T09:39:08.257Z,22.13
2018-09-04T09:40:08.289Z,22.09
2018-09-04T09:41:08.312Z,22.02
2018-09-04T09:42:08.327Z,22.02
2018-09-04T09:43:08.375Z,22.04
2018-09-04T09:44:08.383Z,21.97
2018-09-04T09:45:08.413Z,22.01
2018-09-04T09:46:08.442Z,21.92
2018-09-04T09:47:08.464Z,21.92
2018-09-04T09:49:08.514Z,22.01
2018-09-04T09:50:08.536Z,22.01
2018-09-04T09:51:08.562Z,21.98
2018-09-04T09:52:08.588Z,22.06
2018-09-04T09:54:08.632Z,22.01
2018-09-04T09:55:08.739Z,21.98
2018-09-04T09:56:08.698Z,21.97
2018-09-04T09:57:08.715Z,22.01
2018-09-04T09:58:08.736Z,22.01
2018-09-04T09:59:08.762Z,22.04
2018-09-04T10:00:08.858Z,22.06
2018-09-04T10:01:08.819Z,22.09
2018-09-04T10:02:09.433Z,22.06
2018-09-04T10:03:08.854Z,22.06
2018-09-04T10:04:09.033Z,22.07
2018-09-04T10:05:08.909Z,22.09
2018-09-04T10:06:08.983Z,22.04
2018-09-04T10:07:08.967Z,22.07
2018-09-04T10:08:09.113Z,22.06
2018-09-04T10:09:09.009Z,22.13
2018-09-04T10:10:09.090Z,22.13
2018-09-04T10:11:09.054Z,22.17
2018-09-04T10:12:09.086Z,22.20
2018-09-04T10:13:09.109Z,22.12
2018-09-04T10:14:09.127Z,22.14
2018-09-04T10:15:09.242Z,22.02
2018-09-04T10:16:09.188Z,22.01
2018-09-04T10:17:09.247Z,22.02
2018-09-04T10:18:09.228Z,21.98
2018-09-04T10:19:09.252Z,22.02
2018-09-04T10:20:09.277Z,22.07
2018-09-04T10:21:09.316Z,21.99
2018-09-04T10:22:09.331Z,21.98
2018-09-04T10:23:09.353Z,21.97
2018-09-04T10:24:09.382Z,21.85
2018-09-04T10:25:09.400Z,21.92
2018-09-04T10:26:09.431Z,21.99
2018-09-04T10:27:09.450Z,21.83
2018-09-04T10:28:09.573Z,21.99
2018-09-04T10:29:09.503Z,21.98
2018-09-04T10:30:09.532Z,21.99
2018-09-04T10:31:09.547Z,22.09
2018-09-04T10:32:09.574Z,22.04
2018-09-04T10:33:09.602Z,22.07
2018-09-04T10:34:09.622Z,22.06
2018-09-04T10:35:09.654Z,22.02
2018-09-04T10:36:09.736Z,22.04
2018-09-04T10:37:09.699Z,21.97
2018-09-04T10:38:09.723Z,22.06
2018-09-04T10:39:09.741Z,22.07
2018-09-04T10:40:09.776Z,22.02
2018-09-04T10:41:09.921Z,22.02
2018-09-04T10:42:09.873Z,21.99
2018-09-04T10:43:09.841Z,22.02
2018-09-04T10:44:09.920Z,22.02
2018-09-04T10:45:09.892Z,22.02
2018-09-04T10:46:09.917Z,21.99
2018-09-04T10:47:09.934Z,22.01
2018-09-04T10:48:09.966Z,22.09
2018-09-04T10:49:09.986Z,22.06
2018-09-04T10:50:10.016Z,22.01
2018-09-04T10:51:10.039Z,21.98
2018-09-04T10:52:10.244Z,21.99
2018-09-04T10:53:10.102Z,21.99
2018-09-04T10:54:10.141Z,21.99
2018-09-04T10:55:10.132Z,22.04
2018-09-04T10:56:10.161Z,21.97
2018-09-04T10:57:10.189Z,21.98
2018-09-04T10:58:10.208Z,21.97
2018-09-04T10:59:10.232Z,21.99
2018-09-04T11:00:10.283Z,22.02
2018-09-04T11:01:10.320Z,21.99
2018-09-04T11:02:10.358Z,22.09
2018-09-04T11:03:10.390Z,22.09
2018-09-04T11:04:10.352Z,22.14
2018-09-04T11:05:10.374Z,22.10
2018-09-04T11:06:10.401Z,22.10
2018-09-04T11:07:10.429Z,22.14
2018-09-04T11:08:10.468Z,22.29
2018-09-04T11:09:10.484Z,22.12
2018-09-04T11:10:10.504Z,22.29
2018-09-04T11:11:10.522Z,22.23
2018-09-04T11:12:10.548Z,22.32
2018-09-04T11:13:10.577Z,22.39
2018-09-04T11:14:10.612Z,22.39
2018-09-04T11:15:11.470Z,22.39
2018-09-04T11:16:10.732Z,22.41
2018-09-04T11:17:10.673Z,22.54
2018-09-04T11:18:10.699Z,22.57
2018-09-04T11:19:10.719Z,22.54
2018-09-04T11:20:10.765Z,22.60
2018-09-04T11:21:10.783Z,22.65
2018-09-04T11:22:10.817Z,22.67
2018-09-04T11:23:10.835Z,22.65
2018-09-04T11:24:10.844Z,22.54
2018-09-04T11:25:10.879Z,22.56
2018-09-04T11:26:10.900Z,22.59
2018-09-04T11:27:10.924Z,22.68
2018-09-04T11:28:10.948Z,22.60
2018-09-04T11:29:10.978Z,22.67
2018-09-04T11:30:11.002Z,22.74
2018-09-04T11:31:11.020Z,22.77
2018-09-04T11:32:11.049Z,22.72
2018-09-04T11:33:11.077Z,22.75
2018-09-04T11:34:11.097Z,22.84
2018-09-04T11:35:11.144Z,22.82
2018-09-04T11:36:11.152Z,22.87
2018-09-04T11:37:11.189Z,22.89
2018-09-04T11:38:11.199Z,22.94
2018-09-04T11:39:11.223Z,23.01
2018-09-04T11:40:11.285Z,22.97
2018-09-04T11:41:11.292Z,23.09
2018-09-04T11:42:11.302Z,23.05
2018-09-04T11:43:11.340Z,23.17
2018-09-04T11:44:11.352Z,23.07
2018-09-04T11:45:11.388Z,23.05
2018-09-04T11:46:11.416Z,23.07
2018-09-04T11:47:11.428Z,22.96
2018-09-04T11:48:11.455Z,23.02
2018-09-04T11:49:11.497Z,23.02
2018-09-04T11:50:11.504Z,23.11
2018-09-04T11:51:11.557Z,23.05
2018-09-04T11:52:11.560Z,23.15
2018-09-04T11:53:11.589Z,23.17
2018-09-04T11:54:11.616Z,23.26
2018-09-04T11:55:11.764Z,23.22
2018-09-04T11:56:11.669Z,23.27
2018-09-04T11:57:11.689Z,23.45
2018-09-04T11:58:11.730Z,23.43
2018-09-04T11:59:11.746Z,23.52
2018-09-04T12:00:11.773Z,23.58
2018-09-04T12:01:11.799Z,23.61
2018-09-04T12:02:11.867Z,23.70
2018-09-04T12:03:11.847Z,23.67
2018-09-04T12:04:11.878Z,23.71
2018-09-04T12:05:11.908Z,23.64
2018-09-04T12:06:11.930Z,23.65
2018-09-04T12:07:11.965Z,23.61
2018-09-04T12:08:11.978Z,23.71
2018-09-04T12:09:12.006Z,23.68
2018-09-04T12:10:12.032Z,23.62
2018-09-04T12:11:12.073Z,23.60
2018-09-04T12:12:12.106Z,23.62
2018-09-04T12:13:12.138Z,23.52
2018-09-04T12:14:12.144Z,23.68
2018-09-04T12:15:12.171Z,23.55
2018-09-04T12:16:12.196Z,23.72
2018-09-04T12:17:12.224Z,23.50
2018-09-04T12:18:12.255Z,23.55
2018-09-04T12:19:12.335Z,23.67
2018-09-04T12:20:12.293Z,23.70
2018-09-04T12:21:12.407Z,23.61
2018-09-04T12:22:12.350Z,23.46
2018-09-04T12:23:12.402Z,23.60
2018-09-04T12:24:12.410Z,23.57
2018-09-04T12:25:12.434Z,23.57
2018-09-04T12:26:12.461Z,23.55
2018-09-04T12:27:12.496Z,23.50
2018-09-04T12:28:12.507Z,23.42
2018-09-04T12:29:12.541Z,23.45
2018-09-04T12:30:12.572Z,23.40
2018-09-04T12:31:12.592Z,23.46
2018-09-04T12:32:12.617Z,23.43
2018-09-04T12:33:12.793Z,23.34
2018-09-04T12:34:12.671Z,23.39
2018-09-04T12:35:12.694Z,23.42
2018-09-04T12:36:12.737Z,23.38
2018-09-04T12:37:12.747Z,23.34
2018-09-04T12:38:12.768Z,23.42
2018-09-04T12:39:12.799Z,23.40
2018-09-04T12:40:12.826Z,23.35
2018-09-04T12:41:12.850Z,23.42
2018-09-04T12:42:12.870Z,23.27
2018-09-04T12:43:12.911Z,23.27
2018-09-04T12:44:13.069Z,23.29
2018-09-04T12:45:12.952Z,23.31
2018-09-04T12:46:12.989Z,23.31
2018-09-04T12:47:13.020Z,23.26
2018-09-04T12:48:13.099Z,23.24
2018-09-04T12:49:13.055Z,23.29
2018-09-04T12:50:13.085Z,23.31
2018-09-04T12:51:13.115Z,23.29
2018-09-04T12:52:14.091Z,23.29
2018-09-04T12:53:13.153Z,23.26
2018-09-04T12:54:13.178Z,23.29
2018-09-04T12:55:13.288Z,23.38
2018-09-04T12:56:13.229Z,23.40
2018-09-04T12:57:13.264Z,23.34
2018-09-04T12:58:13.291Z,23.32